createdAt,value
2017-10-01T00:00:34.607Z,0
2017-10-01T00:01:47.103Z,0
2017-10-01T00:02:59.597Z,0
2017-10-01T00:04:11.769Z,0
2017-10-01T00:05:23.656Z,0
2017-10-01T00:06:36.151Z,0
2017-10-01T00:07:48.322Z,0
2017-10-01T00:09:00.843Z,0
2017-10-01T00:10:13.020Z,0
2017-10-01T00:11:25.210Z,0
2017-10-01T00:12:37.405Z,0
2017-10-01T00:13:49.559Z,0
2017-10-01T00:15:01.431Z,0
2017-10-01T00:16:13.875Z,0
2017-10-01T00:17:26.371Z,0
2017-10-01T00:18:38.541Z,0
2017-10-01T00:19:50.418Z,0
2017-10-01T00:21:02.601Z,0
2017-10-01T00:22:14.495Z,0
2017-10-01T00:23:26.691Z,0
2017-10-01T00:24:38.893Z,0
2017-10-01T00:25:51.382Z,0
2017-10-01T00:27:03.828Z,0
2017-10-01T00:28:16.007Z,0
2017-10-01T00:29:28.177Z,0
2017-10-01T00:30:40.647Z,0
2017-10-01T00:31:53.136Z,0
2017-10-01T00:33:05.314Z,0
2017-10-01T00:34:17.787Z,0
2017-10-01T00:35:30.280Z,0
2017-10-01T00:36:42.483Z,0
2017-10-01T00:37:54.965Z,0
2017-10-01T00:39:07.168Z,0
2017-10-01T00:40:19.338Z,0
2017-10-01T00:41:31.509Z,0
2017-10-01T00:42:43.980Z,0
2017-10-01T00:43:56.151Z,0
2017-10-01T00:45:08.623Z,0
2017-10-01T00:46:20.816Z,0
2017-10-01T00:47:33.286Z,0
2017-10-01T00:48:45.475Z,0
2017-10-01T00:49:57.952Z,0
2017-10-01T00:51:10.449Z,0
2017-10-01T00:52:22.645Z,0
2017-10-01T00:53:35.115Z,0
2017-10-01T00:54:46.985Z,0
2017-10-01T00:55:59.458Z,0
2017-10-01T00:57:11.626Z,0
2017-10-01T00:58:23.822Z,0
2017-10-01T00:59:36.319Z,0
2017-10-01T01:00:48.213Z,0
2017-10-01T01:02:00.411Z,0
2017-10-01T01:03:12.303Z,0
2017-10-01T01:04:24.493Z,0
2017-10-01T01:05:37.223Z,0
2017-10-01T01:06:49.693Z,0
2017-10-01T01:08:02.163Z,0
2017-10-01T01:09:14.033Z,0
2017-10-01T01:10:26.229Z,0
2017-10-01T01:11:38.700Z,0
2017-10-01T01:12:50.896Z,0
2017-10-01T01:14:03.391Z,0
2017-10-01T01:15:15.287Z,0
2017-10-01T01:16:27.157Z,0
2017-10-01T01:17:39.629Z,0
2017-10-01T01:18:51.818Z,0
2017-10-01T01:20:04.296Z,0
2017-10-01T01:21:16.815Z,0
2017-10-01T01:22:28.985Z,0
2017-10-01T01:23:41.474Z,0
2017-10-01T01:24:53.653Z,0
2017-10-01T01:26:05.823Z,0
2017-10-01T01:27:17.994Z,0
2017-10-01T01:28:30.466Z,0
2017-10-01T01:29:42.960Z,0
2017-10-01T01:30:54.531Z,0
2017-10-01T01:32:07.028Z,0
2017-10-01T01:33:19.197Z,0
2017-10-01T01:34:31.673Z,0
2017-10-01T01:35:44.156Z,0
2017-10-01T01:36:56.660Z,0
2017-10-01T01:38:08.831Z,0
2017-10-01T01:39:21.001Z,0
2017-10-01T01:40:33.188Z,0
2017-10-01T01:41:45.390Z,0
2017-10-01T01:42:57.828Z,0
2017-10-01T01:44:09.708Z,0
2017-10-01T01:45:22.179Z,0
2017-10-01T01:46:34.675Z,0
2017-10-01T01:47:46.845Z,0
2017-10-01T01:48:59.058Z,0
2017-10-01T01:50:10.635Z,0
2017-10-01T01:51:23.112Z,0
2017-10-01T01:52:35.278Z,0
2017-10-01T01:53:47.774Z,0
2017-10-01T01:55:00.261Z,0
2017-10-01T01:56:12.465Z,0
2017-10-01T01:57:24.652Z,0
2017-10-01T01:58:37.122Z,0
2017-10-01T01:59:49.303Z,0
2017-10-01T02:01:01.789Z,0
2017-10-01T02:02:13.967Z,0
2017-10-01T02:03:26.455Z,0
2017-10-01T02:04:38.934Z,0
2017-10-01T02:05:51.422Z,0
2017-10-01T02:07:03.951Z,0
2017-10-01T02:08:15.822Z,0
2017-10-01T02:09:28.292Z,0
2017-10-01T02:10:40.480Z,0
2017-10-01T02:11:52.675Z,0
2017-10-01T02:13:04.845Z,0
2017-10-01T02:14:17.327Z,0
2017-10-01T02:15:30.063Z,0
2017-10-01T02:16:42.566Z,0
2017-10-01T02:17:54.761Z,0
2017-10-01T02:19:06.950Z,0
2017-10-01T02:20:19.128Z,0
2017-10-01T02:21:31.322Z,0
2017-10-01T02:22:43.795Z,0
2017-10-01T02:23:55.964Z,0
2017-10-01T02:25:08.460Z,0
2017-10-01T02:26:20.995Z,0
2017-10-01T02:27:33.177Z,0
2017-10-01T02:28:45.671Z,0
2017-10-01T02:29:58.168Z,0
2017-10-01T02:31:10.364Z,0
2017-10-01T02:32:22.854Z,0
2017-10-01T02:33:35.350Z,0
2017-10-01T02:34:46.926Z,0
2017-10-01T02:35:59.099Z,0
2017-10-01T02:37:11.592Z,0
2017-10-01T02:38:23.763Z,0
2017-10-01T02:39:35.951Z,0
2017-10-01T02:40:48.153Z,0
2017-10-01T02:42:00.624Z,0
2017-10-01T02:43:12.820Z,0
2017-10-01T02:44:25.307Z,0
2017-10-01T02:45:37.787Z,0
2017-10-01T02:46:49.974Z,0
2017-10-01T02:48:02.469Z,0
2017-10-01T02:49:14.964Z,0
2017-10-01T02:50:27.142Z,0
2017-10-01T02:51:39.615Z,0
2017-10-01T02:52:51.787Z,0
2017-10-01T02:54:04.274Z,0
2017-10-01T02:55:16.477Z,0
2017-10-01T02:56:28.951Z,0
2017-10-01T02:57:41.121Z,0
2017-10-01T02:58:53.613Z,0
2017-10-01T03:00:06.084Z,0
2017-10-01T03:01:18.255Z,0
2017-10-01T03:02:30.749Z,0
2017-10-01T03:03:42.939Z,0
2017-10-01T03:04:55.134Z,0
2017-10-01T03:06:07.611Z,0
2017-10-01T03:07:19.485Z,0
2017-10-01T03:08:31.671Z,0
2017-10-01T03:09:44.166Z,0
2017-10-01T03:10:56.037Z,0
2017-10-01T03:12:08.216Z,0
2017-10-01T03:13:20.735Z,0
2017-10-01T03:14:33.207Z,0
2017-10-01T03:15:45.678Z,0
2017-10-01T03:16:57.548Z,0
2017-10-01T03:18:10.036Z,0
2017-10-01T03:19:22.531Z,0
2017-10-01T03:20:35.014Z,0
2017-10-01T03:21:46.880Z,0
2017-10-01T03:22:59.369Z,0
2017-10-01T03:24:11.272Z,0
2017-10-01T03:25:23.759Z,0
2017-10-01T03:26:36.268Z,0
2017-10-01T03:27:48.759Z,0
2017-10-01T03:29:00.930Z,0
2017-10-01T03:30:13.425Z,0
2017-10-01T03:31:26.171Z,0
2017-10-01T03:32:38.342Z,0
2017-10-01T03:33:50.830Z,0
2017-10-01T03:35:03.025Z,0
2017-10-01T03:36:14.895Z,0
2017-10-01T03:37:27.073Z,0
2017-10-01T03:38:38.962Z,0
2017-10-01T03:39:51.465Z,0
2017-10-01T03:41:03.940Z,0
2017-10-01T03:42:16.408Z,0
2017-10-01T03:43:28.895Z,0
2017-10-01T03:44:41.373Z,0
2017-10-01T03:45:53.860Z,0
2017-10-01T03:47:06.339Z,0
2017-10-01T03:48:18.210Z,0
2017-10-01T03:49:30.705Z,0
2017-10-01T03:50:42.901Z,0
2017-10-01T03:51:54.778Z,0
2017-10-01T03:53:06.667Z,0
2017-10-01T03:54:18.856Z,0
2017-10-01T03:55:31.051Z,0
2017-10-01T03:56:43.229Z,0
2017-10-01T03:57:55.403Z,0
2017-10-01T03:59:07.589Z,0
2017-10-01T04:00:20.086Z,0
2017-10-01T04:01:32.580Z,0
2017-10-01T04:02:44.784Z,0
2017-10-01T04:03:57.279Z,0
2017-10-01T04:05:09.478Z,0
2017-10-01T04:06:21.962Z,0
2017-10-01T04:07:33.839Z,0
2017-10-01T04:08:46.028Z,0
2017-10-01T04:09:58.206Z,0
2017-10-01T04:11:10.377Z,0
2017-10-01T04:12:22.849Z,0
2017-10-01T04:13:35.036Z,0
2017-10-01T04:14:46.894Z,0
2017-10-01T04:15:59.384Z,0
2017-10-01T04:17:11.855Z,0
2017-10-01T04:18:24.329Z,0
2017-10-01T04:19:36.814Z,0
2017-10-01T04:20:48.993Z,0
2017-10-01T04:22:01.188Z,0
2017-10-01T04:23:13.359Z,0
2017-10-01T04:24:25.530Z,0
2017-10-01T04:25:38.000Z,0
2017-10-01T04:26:49.874Z,0
2017-10-01T04:28:02.366Z,0
2017-10-01T04:29:14.836Z,0
2017-10-01T04:30:26.711Z,0
2017-10-01T04:31:38.894Z,0
2017-10-01T04:32:51.074Z,0
2017-10-01T04:34:03.562Z,0
2017-10-01T04:35:15.741Z,0
2017-10-01T04:36:28.529Z,0
2017-10-01T04:37:41.007Z,0
2017-10-01T04:38:53.177Z,0
2017-10-01T04:40:05.349Z,4
2017-10-01T04:41:17.844Z,4
2017-10-01T04:42:30.014Z,0
2017-10-01T04:43:42.190Z,4
2017-10-01T04:44:54.673Z,4
2017-10-01T04:46:06.853Z,0
2017-10-01T04:47:19.021Z,4
2017-10-01T04:48:31.511Z,4
2017-10-01T04:49:43.706Z,4
2017-10-01T04:50:56.201Z,8
2017-10-01T04:52:08.397Z,12
2017-10-01T04:53:20.599Z,12
2017-10-01T04:54:32.788Z,12
2017-10-01T04:55:44.966Z,12
2017-10-01T04:56:56.831Z,12
2017-10-01T04:58:09.307Z,16
2017-10-01T04:59:21.496Z,20
2017-10-01T05:00:33.991Z,20
2017-10-01T05:01:46.470Z,24
2017-10-01T05:02:58.665Z,28
2017-10-01T05:04:11.161Z,28
2017-10-01T05:05:23.349Z,36
2017-10-01T05:06:35.527Z,40
2017-10-01T05:07:47.698Z,44
2017-10-01T05:09:00.186Z,48
2017-10-01T05:10:12.364Z,56
2017-10-01T05:11:24.552Z,64
2017-10-01T05:12:37.031Z,72
2017-10-01T05:13:48.601Z,84
2017-10-01T05:15:00.172Z,96
2017-10-01T05:16:12.342Z,112
2017-10-01T05:17:24.815Z,128
2017-10-01T05:18:37.285Z,152
2017-10-01T05:19:49.457Z,176
2017-10-01T05:21:01.642Z,188
2017-10-01T05:22:13.813Z,200
2017-10-01T05:23:25.986Z,216
2017-10-01T05:24:38.480Z,244
2017-10-01T05:25:50.351Z,272
2017-10-01T05:27:02.845Z,300
2017-10-01T05:28:15.024Z,320
2017-10-01T05:29:27.520Z,328
2017-10-01T05:30:39.690Z,316
2017-10-01T05:31:51.561Z,304
2017-10-01T05:33:04.031Z,316
2017-10-01T05:34:16.522Z,328
2017-10-01T05:35:28.999Z,332
2017-10-01T05:36:41.173Z,332
2017-10-01T05:37:53.041Z,324
2017-10-01T05:39:05.527Z,320
2017-10-01T05:40:18.006Z,332
2017-10-01T05:41:30.478Z,364
2017-10-01T05:42:42.672Z,404
2017-10-01T05:43:55.160Z,444
2017-10-01T05:45:07.639Z,484
2017-10-01T05:46:20.126Z,516
2017-10-01T05:47:32.620Z,536
2017-10-01T05:48:44.800Z,540
2017-10-01T05:49:56.671Z,540
2017-10-01T05:51:08.542Z,548
2017-10-01T05:52:20.962Z,572
2017-10-01T05:53:33.449Z,608
2017-10-01T05:54:45.304Z,656
2017-10-01T05:55:57.491Z,708
2017-10-01T05:57:09.686Z,764
2017-10-01T05:58:21.866Z,824
2017-10-01T05:59:34.361Z,884
2017-10-01T06:00:46.535Z,928
2017-10-01T06:01:59.019Z,992
2017-10-01T06:03:11.197Z,1104
2017-10-01T06:04:23.372Z,1192
2017-10-01T06:05:35.556Z,1188
2017-10-01T06:06:47.410Z,1144
2017-10-01T06:07:59.581Z,1080
2017-10-01T06:09:11.752Z,1000
2017-10-01T06:10:24.225Z,992
2017-10-01T06:11:36.393Z,1024
2017-10-01T06:12:48.280Z,1060
2017-10-01T06:14:00.458Z,1076
2017-10-01T06:15:12.954Z,1064
2017-10-01T06:16:25.130Z,1032
2017-10-01T06:17:37.613Z,996
2017-10-01T06:18:50.092Z,960
2017-10-01T06:20:02.588Z,948
2017-10-01T06:21:15.076Z,976
2017-10-01T06:22:27.558Z,996
2017-10-01T06:23:40.073Z,1016
2017-10-01T06:24:52.544Z,1032
2017-10-01T06:26:04.116Z,1056
2017-10-01T06:27:16.286Z,1108
2017-10-01T06:28:28.757Z,1156
2017-10-01T06:29:41.227Z,1188
2017-10-01T06:30:53.697Z,1216
2017-10-01T06:32:06.169Z,1220
2017-10-01T06:33:18.641Z,1212
2017-10-01T06:34:30.813Z,1180
2017-10-01T06:35:42.981Z,1160
2017-10-01T06:36:55.151Z,1172
2017-10-01T06:38:07.326Z,1208
2017-10-01T06:39:19.810Z,1252
2017-10-01T06:40:31.987Z,1300
2017-10-01T06:41:44.184Z,1328
2017-10-01T06:42:56.354Z,1344
2017-10-01T06:44:07.617Z,1312
2017-10-01T06:45:20.113Z,1272
2017-10-01T06:46:32.595Z,1244
2017-10-01T06:47:44.780Z,1216
2017-10-01T06:48:56.959Z,1188
2017-10-01T06:50:09.145Z,1168
2017-10-01T06:51:20.700Z,1160
2017-10-01T06:52:33.188Z,1172
2017-10-01T06:53:45.365Z,1196
2017-10-01T06:54:57.537Z,1208
2017-10-01T06:56:09.708Z,1248
2017-10-01T06:57:22.202Z,1316
2017-10-01T06:58:34.373Z,1372
2017-10-01T06:59:46.861Z,1452
2017-10-01T07:00:58.715Z,1508
2017-10-01T07:02:11.210Z,1532
2017-10-01T07:03:23.683Z,1572
2017-10-01T07:04:35.851Z,1616
2017-10-01T07:05:47.123Z,1656
2017-10-01T07:06:58.994Z,1680
2017-10-01T07:08:11.469Z,1776
2017-10-01T07:09:23.335Z,1808
2017-10-01T07:10:35.806Z,1880
2017-10-01T07:11:48.277Z,1872
2017-10-01T07:13:00.473Z,1948
2017-10-01T07:14:12.342Z,2132
2017-10-01T07:15:24.837Z,2488
2017-10-01T07:16:37.332Z,2844
2017-10-01T07:17:49.529Z,3188
2017-10-01T07:19:01.726Z,3416
2017-10-01T07:20:14.197Z,3616
2017-10-01T07:21:26.682Z,3684
2017-10-01T07:22:39.179Z,3764
2017-10-01T07:23:51.682Z,3860
2017-10-01T07:25:04.178Z,3992
2017-10-01T07:26:16.047Z,4140
2017-10-01T07:27:28.236Z,4084
2017-10-01T07:28:40.432Z,3984
2017-10-01T07:29:52.909Z,3788
2017-10-01T07:31:05.405Z,3760
2017-10-01T07:32:17.877Z,3724
2017-10-01T07:33:30.364Z,3680
2017-10-01T07:34:41.918Z,3520
2017-10-01T07:35:54.106Z,3464
2017-10-01T07:37:06.284Z,3496
2017-10-01T07:38:18.779Z,3540
2017-10-01T07:39:30.367Z,3460
2017-10-01T07:40:42.870Z,3468
2017-10-01T07:41:55.359Z,3688
2017-10-01T07:43:07.538Z,3748
2017-10-01T07:44:19.407Z,3696
2017-10-01T07:45:31.895Z,3876
2017-10-01T07:46:44.374Z,4068
2017-10-01T07:47:56.863Z,4064
2017-10-01T07:49:09.358Z,4056
2017-10-01T07:50:21.539Z,4104
2017-10-01T07:51:33.424Z,4104
2017-10-01T07:52:45.002Z,4152
2017-10-01T07:53:57.524Z,4068
2017-10-01T07:55:09.093Z,3984
2017-10-01T07:56:21.264Z,3816
2017-10-01T07:57:33.160Z,3416
2017-10-01T07:58:45.349Z,3060
2017-10-01T07:59:57.844Z,2908
2017-10-01T08:01:10.024Z,3064
2017-10-01T08:02:22.493Z,3360
2017-10-01T08:03:34.989Z,3572
2017-10-01T08:04:47.477Z,3700
2017-10-01T08:05:59.655Z,3664
2017-10-01T08:07:11.527Z,3704
2017-10-01T08:08:24.013Z,3772
2017-10-01T08:09:35.909Z,3572
2017-10-01T08:10:48.089Z,3468
2017-10-01T08:12:00.576Z,3312
2017-10-01T08:13:13.078Z,3536
2017-10-01T08:14:25.552Z,3920
2017-10-01T08:15:38.021Z,4292
2017-10-01T08:16:50.190Z,4628
2017-10-01T08:18:02.380Z,4888
2017-10-01T08:19:14.882Z,4908
2017-10-01T08:20:27.070Z,4820
2017-10-01T08:21:39.266Z,5312
2017-10-01T08:22:51.761Z,5432
2017-10-01T08:24:03.940Z,5412
2017-10-01T08:25:16.435Z,5656
2017-10-01T08:26:28.931Z,5868
2017-10-01T08:27:41.102Z,5740
2017-10-01T08:28:52.973Z,5644
2017-10-01T08:30:05.168Z,5840
2017-10-01T08:31:17.355Z,5864
2017-10-01T08:32:29.833Z,5528
2017-10-01T08:33:42.322Z,5416
2017-10-01T08:34:54.817Z,5288
2017-10-01T08:36:07.313Z,5108
2017-10-01T08:37:19.792Z,5044
2017-10-01T08:38:32.279Z,4632
2017-10-01T08:39:44.159Z,4172
2017-10-01T08:40:56.654Z,3908
2017-10-01T08:42:09.128Z,4008
2017-10-01T08:43:21.621Z,4328
2017-10-01T08:44:34.109Z,4588
2017-10-01T08:45:45.985Z,5044
2017-10-01T08:46:58.157Z,4972
2017-10-01T08:48:10.028Z,4744
2017-10-01T08:49:22.566Z,4692
2017-10-01T08:50:34.744Z,4576
2017-10-01T08:51:46.914Z,4516
2017-10-01T08:52:59.087Z,4420
2017-10-01T08:54:11.255Z,4632
2017-10-01T08:55:23.444Z,4488
2017-10-01T08:56:35.339Z,4228
2017-10-01T08:57:47.517Z,4016
2017-10-01T08:59:00.006Z,4328
2017-10-01T09:00:12.185Z,4796
2017-10-01T09:01:24.655Z,5128
2017-10-01T09:02:37.143Z,4984
2017-10-01T09:03:49.339Z,4844
2017-10-01T09:05:01.842Z,4552
2017-10-01T09:06:14.329Z,4380
2017-10-01T09:07:26.808Z,4424
2017-10-01T09:08:38.679Z,4464
2017-10-01T09:09:50.555Z,4216
2017-10-01T09:11:02.419Z,3460
2017-10-01T09:12:14.908Z,3016
2017-10-01T09:13:27.391Z,2972
2017-10-01T09:14:39.557Z,2980
2017-10-01T09:15:51.729Z,2896
2017-10-01T09:17:03.923Z,3436
2017-10-01T09:18:16.119Z,4048
2017-10-01T09:19:28.607Z,4112
2017-10-01T09:20:41.085Z,4724
2017-10-01T09:21:53.274Z,4572
2017-10-01T09:23:05.477Z,4048
2017-10-01T09:24:17.697Z,3444
2017-10-01T09:25:30.192Z,3364
2017-10-01T09:26:42.363Z,3916
2017-10-01T09:27:54.859Z,4528
2017-10-01T09:29:07.029Z,5128
2017-10-01T09:30:19.229Z,5316
2017-10-01T09:31:31.721Z,5232
2017-10-01T09:32:43.909Z,4820
2017-10-01T09:33:55.187Z,3892
2017-10-01T09:35:06.450Z,3800
2017-10-01T09:36:18.630Z,4552
2017-10-01T09:37:31.100Z,4824
2017-10-01T09:38:43.270Z,4144
2017-10-01T09:39:56.016Z,4880
2017-10-01T09:41:08.212Z,5332
2017-10-01T09:42:20.699Z,4532
2017-10-01T09:43:32.578Z,4600
2017-10-01T09:44:45.066Z,4912
2017-10-01T09:45:57.561Z,4776
2017-10-01T09:47:09.742Z,5448
2017-10-01T09:48:22.252Z,7156
2017-10-01T09:49:34.448Z,8128
2017-10-01T09:50:46.026Z,8940
2017-10-01T09:51:58.198Z,8932
2017-10-01T09:53:10.369Z,9348
2017-10-01T09:54:22.256Z,9732
2017-10-01T09:55:34.737Z,9540
2017-10-01T09:56:47.247Z,9056
2017-10-01T09:57:59.427Z,8928
2017-10-01T09:59:11.296Z,7996
2017-10-01T10:00:22.885Z,8696
2017-10-01T10:01:35.386Z,8656
2017-10-01T10:02:46.665Z,9500
2017-10-01T10:03:59.179Z,9900
2017-10-01T10:05:11.350Z,10800
2017-10-01T10:06:23.545Z,11436
2017-10-01T10:07:35.415Z,11908
2017-10-01T10:08:47.287Z,11844
2017-10-01T10:09:58.850Z,13004
2017-10-01T10:11:11.352Z,13732
2017-10-01T10:12:23.824Z,14132
2017-10-01T10:13:36.320Z,14536
2017-10-01T10:14:48.792Z,15404
2017-10-01T10:16:01.261Z,14584
2017-10-01T10:17:13.730Z,15044
2017-10-01T10:18:25.926Z,14908
2017-10-01T10:19:38.423Z,15080
2017-10-01T10:20:50.897Z,14812
2017-10-01T10:22:02.765Z,14092
2017-10-01T10:23:15.260Z,13380
2017-10-01T10:24:27.747Z,11540
2017-10-01T10:25:39.926Z,11860
2017-10-01T10:26:51.822Z,13524
2017-10-01T10:28:03.993Z,13212
2017-10-01T10:29:15.888Z,13872
2017-10-01T10:30:28.383Z,15256
2017-10-01T10:31:40.879Z,15444
2017-10-01T10:32:52.776Z,14548
2017-10-01T10:34:04.962Z,13204
2017-10-01T10:35:16.834Z,12716
2017-10-01T10:36:29.331Z,15132
2017-10-01T10:37:41.227Z,15112
2017-10-01T10:38:53.120Z,12336
2017-10-01T10:40:05.005Z,10772
2017-10-01T10:41:17.486Z,9796
2017-10-01T10:42:29.365Z,8760
2017-10-01T10:43:41.837Z,9240
2017-10-01T10:44:54.325Z,8876
2017-10-01T10:46:06.845Z,9524
2017-10-01T10:47:19.348Z,10168
2017-10-01T10:48:31.544Z,9740
2017-10-01T10:49:44.039Z,11084
2017-10-01T10:50:56.211Z,9264
2017-10-01T10:52:08.705Z,8920
2017-10-01T10:53:20.875Z,8936
2017-10-01T10:54:32.771Z,8428
2017-10-01T10:55:44.942Z,7984
2017-10-01T10:56:57.112Z,6888
2017-10-01T10:58:09.601Z,6812
2017-10-01T10:59:21.796Z,7044
2017-10-01T11:00:33.701Z,7952
2017-10-01T11:01:45.895Z,8472
2017-10-01T11:02:58.071Z,7684
2017-10-01T11:04:10.555Z,7988
2017-10-01T11:05:22.735Z,8428
2017-10-01T11:06:35.246Z,8064
2017-10-01T11:07:47.740Z,7628
2017-10-01T11:08:59.920Z,7592
2017-10-01T11:10:12.107Z,8992
2017-10-01T11:11:23.378Z,9284
2017-10-01T11:12:35.563Z,7200
2017-10-01T11:13:47.752Z,6188
2017-10-01T11:14:59.323Z,6300
2017-10-01T11:16:11.843Z,6928
2017-10-01T11:17:24.014Z,7892
2017-10-01T11:18:35.885Z,8832
2017-10-01T11:19:48.073Z,8348
2017-10-01T11:20:59.944Z,8800
2017-10-01T11:22:12.122Z,9268
2017-10-01T11:23:24.330Z,9528
2017-10-01T11:24:36.513Z,9184
2017-10-01T11:25:48.709Z,9832
2017-10-01T11:27:00.879Z,11092
2017-10-01T11:28:13.056Z,12120
2017-10-01T11:29:25.246Z,13560
2017-10-01T11:30:37.433Z,14104
2017-10-01T11:31:49.312Z,15144
2017-10-01T11:33:01.182Z,16120
2017-10-01T11:34:13.077Z,15564
2017-10-01T11:35:25.266Z,14584
2017-10-01T11:36:37.462Z,12784
2017-10-01T11:37:49.958Z,11068
2017-10-01T11:39:02.411Z,9196
2017-10-01T11:40:14.599Z,7360
2017-10-01T11:41:26.777Z,6484
2017-10-01T11:42:38.966Z,5836
2017-10-01T11:43:51.470Z,5180
2017-10-01T11:45:03.684Z,5152
2017-10-01T11:46:15.860Z,4876
2017-10-01T11:47:28.056Z,4612
2017-10-01T11:48:40.543Z,4724
2017-10-01T11:49:52.746Z,4764
2017-10-01T11:51:04.917Z,4844
2017-10-01T11:52:17.405Z,4992
2017-10-01T11:53:28.983Z,5404
2017-10-01T11:54:40.857Z,5148
2017-10-01T11:55:53.375Z,5464
2017-10-01T11:57:05.563Z,5140
2017-10-01T11:58:17.141Z,4732
2017-10-01T11:59:29.637Z,4652
2017-10-01T12:00:41.808Z,4332
2017-10-01T12:01:54.329Z,4212
2017-10-01T12:03:06.830Z,4700
2017-10-01T12:04:19.323Z,5872
2017-10-01T12:05:31.191Z,6064
2017-10-01T12:06:43.386Z,5888
2017-10-01T12:07:55.881Z,6076
2017-10-01T12:09:08.377Z,6448
2017-10-01T12:10:20.865Z,7060
2017-10-01T12:11:33.362Z,7848
2017-10-01T12:12:45.564Z,8076
2017-10-01T12:13:57.452Z,7996
2017-10-01T12:15:09.322Z,7088
2017-10-01T12:16:21.503Z,6940
2017-10-01T12:17:33.372Z,6512
2017-10-01T12:18:45.866Z,6648
2017-10-01T12:19:58.055Z,6104
2017-10-01T12:21:10.252Z,5680
2017-10-01T12:22:22.755Z,6312
2017-10-01T12:23:34.942Z,6444
2017-10-01T12:24:47.122Z,7092
2017-10-01T12:25:59.645Z,7696
2017-10-01T12:27:11.513Z,8192
2017-10-01T12:28:24.008Z,8572
2017-10-01T12:29:36.229Z,10260
2017-10-01T12:30:48.726Z,12560
2017-10-01T12:32:00.898Z,14376
2017-10-01T12:33:12.769Z,14788
2017-10-01T12:34:24.661Z,13692
2017-10-01T12:35:37.157Z,12620
2017-10-01T12:36:49.344Z,11488
2017-10-01T12:38:01.523Z,10208
2017-10-01T12:39:13.695Z,9444
2017-10-01T12:40:25.864Z,9336
2017-10-01T12:41:38.353Z,9160
2017-10-01T12:42:50.555Z,9172
2017-10-01T12:44:03.068Z,8636
2017-10-01T12:45:14.947Z,8472
2017-10-01T12:46:27.142Z,8820
2017-10-01T12:47:39.314Z,8992
2017-10-01T12:48:51.802Z,9080
2017-10-01T12:50:03.998Z,9352
2017-10-01T12:51:16.502Z,9508
2017-10-01T12:52:28.671Z,10156
2017-10-01T12:53:41.168Z,11508
2017-10-01T12:54:53.363Z,12024
2017-10-01T12:56:04.932Z,11212
2017-10-01T12:57:17.108Z,10148
2017-10-01T12:58:29.601Z,9132
2017-10-01T12:59:41.469Z,8768
2017-10-01T13:00:53.341Z,8616
2017-10-01T13:02:05.536Z,8804
2017-10-01T13:03:17.732Z,8900
2017-10-01T13:04:29.909Z,8452
2017-10-01T13:05:42.400Z,8248
2017-10-01T13:06:53.986Z,8004
2017-10-01T13:08:06.189Z,7308
2017-10-01T13:09:18.377Z,6596
2017-10-01T13:10:30.882Z,6112
2017-10-01T13:11:43.377Z,5740
2017-10-01T13:12:55.896Z,5512
2017-10-01T13:14:08.385Z,5436
2017-10-01T13:15:20.564Z,5612
2017-10-01T13:16:32.764Z,5736
2017-10-01T13:17:44.946Z,6104
2017-10-01T13:18:57.442Z,6536
2017-10-01T13:20:09.670Z,6972
2017-10-01T13:21:21.559Z,7692
2017-10-01T13:22:33.137Z,8868
2017-10-01T13:23:44.707Z,10384
2017-10-01T13:24:56.297Z,11544
2017-10-01T13:26:08.193Z,12104
2017-10-01T13:27:20.071Z,12284
2017-10-01T13:28:32.558Z,12332
2017-10-01T13:29:44.736Z,12240
2017-10-01T13:30:56.909Z,12348
2017-10-01T13:32:08.803Z,12252
2017-10-01T13:33:21.298Z,11268
2017-10-01T13:34:33.474Z,10500
2017-10-01T13:35:45.365Z,9876
2017-10-01T13:36:57.861Z,9468
2017-10-01T13:38:10.056Z,8740
2017-10-01T13:39:22.552Z,8968
2017-10-01T13:40:35.048Z,8044
2017-10-01T13:41:47.224Z,6376
2017-10-01T13:42:59.705Z,6472
2017-10-01T13:44:11.884Z,8416
2017-10-01T13:45:24.080Z,10108
2017-10-01T13:46:36.567Z,9376
2017-10-01T13:47:47.821Z,8556
2017-10-01T13:49:00.010Z,9672
2017-10-01T13:50:11.888Z,11228
2017-10-01T13:51:24.375Z,11672
2017-10-01T13:52:36.854Z,11768
2017-10-01T13:53:48.742Z,11616
2017-10-01T13:55:01.275Z,10708
2017-10-01T13:56:13.766Z,9856
2017-10-01T13:57:25.953Z,9708
2017-10-01T13:58:38.432Z,9784
2017-10-01T13:59:50.854Z,9724
2017-10-01T14:01:03.347Z,9864
2017-10-01T14:02:15.544Z,10568
2017-10-01T14:03:28.040Z,11244
2017-10-01T14:04:40.228Z,11468
2017-10-01T14:05:52.708Z,11680
2017-10-01T14:07:04.902Z,11868
2017-10-01T14:08:16.490Z,11764
2017-10-01T14:09:28.068Z,11636
2017-10-01T14:10:39.938Z,11440
2017-10-01T14:11:52.135Z,11200
2017-10-01T14:13:04.006Z,10828
2017-10-01T14:14:16.200Z,10360
2017-10-01T14:15:28.695Z,9848
2017-10-01T14:16:40.891Z,9520
2017-10-01T14:17:53.080Z,9340
2017-10-01T14:19:05.276Z,9052
2017-10-01T14:20:17.771Z,8516
2017-10-01T14:21:29.950Z,7956
2017-10-01T14:22:42.120Z,7640
2017-10-01T14:23:54.640Z,7696
2017-10-01T14:25:07.154Z,7924
2017-10-01T14:26:19.632Z,7916
2017-10-01T14:27:31.502Z,7848
2017-10-01T14:28:43.374Z,8088
2017-10-01T14:29:55.562Z,8688
2017-10-01T14:31:08.065Z,9324
2017-10-01T14:32:20.552Z,9744
2017-10-01T14:33:32.748Z,9868
2017-10-01T14:34:44.644Z,9892
2017-10-01T14:35:56.545Z,9784
2017-10-01T14:37:08.418Z,9264
2017-10-01T14:38:20.612Z,8680
2017-10-01T14:39:32.810Z,7708
2017-10-01T14:40:45.035Z,6960
2017-10-01T14:41:57.200Z,6456
2017-10-01T14:43:09.689Z,5708
2017-10-01T14:44:22.191Z,4804
2017-10-01T14:45:34.688Z,3964
2017-10-01T14:46:47.186Z,3260
2017-10-01T14:47:59.371Z,2764
2017-10-01T14:49:11.874Z,2424
2017-10-01T14:50:24.045Z,2172
2017-10-01T14:51:36.233Z,1944
2017-10-01T14:52:48.729Z,1808
2017-10-01T14:54:01.206Z,1680
2017-10-01T14:55:13.080Z,1592
2017-10-01T14:56:25.566Z,1628
2017-10-01T14:57:37.444Z,1892
2017-10-01T14:58:49.937Z,2416
2017-10-01T15:00:02.462Z,3136
2017-10-01T15:01:14.949Z,4080
2017-10-01T15:02:27.451Z,5220
2017-10-01T15:03:39.940Z,6220
2017-10-01T15:04:51.819Z,6916
2017-10-01T15:06:04.314Z,7124
2017-10-01T15:07:15.884Z,6676
2017-10-01T15:08:28.057Z,6268
2017-10-01T15:09:39.951Z,5940
2017-10-01T15:10:52.439Z,5572
2017-10-01T15:12:03.717Z,5252
2017-10-01T15:13:15.287Z,5012
2017-10-01T15:14:27.784Z,4660
2017-10-01T15:15:39.671Z,4044
2017-10-01T15:16:51.867Z,3348
2017-10-01T15:18:04.370Z,2576
2017-10-01T15:19:16.569Z,1856
2017-10-01T15:20:28.763Z,1316
2017-10-01T15:21:40.633Z,1044
2017-10-01T15:22:53.121Z,976
2017-10-01T15:24:05.316Z,976
2017-10-01T15:25:17.520Z,952
2017-10-01T15:26:29.708Z,900
2017-10-01T15:27:41.603Z,800
2017-10-01T15:28:53.782Z,772
2017-10-01T15:30:06.271Z,924
2017-10-01T15:31:18.779Z,1280
2017-10-01T15:32:30.965Z,1584
2017-10-01T15:33:42.840Z,1720
2017-10-01T15:34:55.012Z,1804
2017-10-01T15:36:07.506Z,1872
2017-10-01T15:37:19.694Z,1836
2017-10-01T15:38:31.897Z,1540
2017-10-01T15:39:43.785Z,1308
2017-10-01T15:40:55.661Z,1292
2017-10-01T15:42:08.160Z,1344
2017-10-01T15:43:20.676Z,1448
2017-10-01T15:44:32.550Z,1552
2017-10-01T15:45:44.738Z,1680
2017-10-01T15:46:57.218Z,1836
2017-10-01T15:48:09.404Z,2044
2017-10-01T15:49:21.900Z,2268
2017-10-01T15:50:34.379Z,2520
2017-10-01T15:51:46.248Z,2820
2017-10-01T15:52:57.520Z,3076
2017-10-01T15:54:09.091Z,3236
2017-10-01T15:55:21.278Z,3300
2017-10-01T15:56:33.457Z,3316
2017-10-01T15:57:45.653Z,3100
2017-10-01T15:58:58.397Z,2576
2017-10-01T16:00:10.886Z,2096
2017-10-01T16:01:22.765Z,1756
2017-10-01T16:02:34.964Z,1432
2017-10-01T16:03:47.148Z,1212
2017-10-01T16:04:59.327Z,1120
2017-10-01T16:06:11.497Z,1020
2017-10-01T16:07:23.985Z,872
2017-10-01T16:08:36.480Z,756
2017-10-01T16:09:48.665Z,704
2017-10-01T16:11:00.857Z,664
2017-10-01T16:12:12.728Z,596
2017-10-01T16:13:25.196Z,548
2017-10-01T16:14:37.383Z,556
2017-10-01T16:15:49.262Z,592
2017-10-01T16:17:00.834Z,620
2017-10-01T16:18:12.728Z,632
2017-10-01T16:19:25.202Z,648
2017-10-01T16:20:37.956Z,684
2017-10-01T16:21:50.164Z,724
2017-10-01T16:23:02.038Z,728
2017-10-01T16:24:14.532Z,708
2017-10-01T16:25:27.020Z,692
2017-10-01T16:26:39.216Z,680
2017-10-01T16:27:51.695Z,640
2017-10-01T16:29:04.165Z,580
2017-10-01T16:30:16.039Z,516
2017-10-01T16:31:27.923Z,452